sensor_id;sensor_type;location;lat;lon;timestamp;pressure;altitude;pressure_sealevel;temperature;humidity
12951;BME280;6540;50.858;7.232;2023-02-07T00:01:55;51886.81;;;-142.34;31.24
12951;BME280;6540;50.858;7.232;2023-02-07T00:04:20;51931.19;;;-142.34;30.60
12951;BME280;6540;50.858;7.232;2023-02-07T00:06:46;51943.31;;;-142.34;30.65
12951;BME280;6540;50.858;7.232;2023-02-07T00:09:11;51919.09;;;-142.34;29.16
12951;BME280;6540;50.858;7.232;2023-02-07T00:11:37;51947.34;;;-142.34;29.40
12951;BME280;6540;50.858;7.232;2023-02-07T00:14:05;52003.81;;;-142.34;28.92
12951;BME280;6540;50.858;7.232;2023-02-07T00:16:31;51987.69;;;-142.34;29.10
12951;BME280;6540;50.858;7.232;2023-02-07T00:18:56;52007.84;;;-142.34;28.87
12951;BME280;6540;50.858;7.232;2023-02-07T00:21:22;51951.38;;;-142.34;28.66
12951;BME280;6540;50.858;7.232;2023-02-07T00:23:49;51955.41;;;-142.34;28.46
12951;BME280;6540;50.858;7.232;2023-02-07T00:26:16;51987.69;;;-142.34;28.70
12951;BME280;6540;50.858;7.232;2023-02-07T00:28:41;51991.72;;;-142.34;28.48
12951;BME280;6540;50.858;7.232;2023-02-07T00:31:25;51955.41;;;-142.34;29.05
12951;BME280;6540;50.858;7.232;2023-02-07T00:33:54;51959.44;;;-142.34;29.56
12951;BME280;6540;50.858;7.232;2023-02-07T00:36:22;51921.13;;;-142.34;29.63
12951;BME280;6540;50.858;7.232;2023-02-07T00:38:47;51933.22;;;-142.34;29.68
12951;BME280;6540;50.858;7.232;2023-02-07T00:41:13;51923.13;;;-142.34;28.73
12951;BME280;6540;50.858;7.232;2023-02-07T00:43:42;51953.41;;;-142.34;28.75
12951;BME280;6540;50.858;7.232;2023-02-07T00:46:08;51991.72;;;-142.34;29.21
12951;BME280;6540;50.858;7.232;2023-02-07T00:48:33;51931.19;;;-142.34;29.95
12951;BME280;6540;50.858;7.232;2023-02-07T00:50:59;51935.25;;;-142.34;28.97
12951;BME280;6540;50.858;7.232;2023-02-07T00:53:27;51971.53;;;-142.34;28.54
12951;BME280;6540;50.858;7.232;2023-02-07T00:55:53;51993.75;;;-142.34;28.64
12951;BME280;6540;50.858;7.232;2023-02-07T00:58:18;51931.19;;;-142.34;28.56
12951;BME280;6540;50.858;7.232;2023-02-07T01:00:44;51963.47;;;-142.34;28.25
12951;BME280;6540;50.858;7.232;2023-02-07T01:03:09;51971.53;;;-142.34;29.46
12951;BME280;6540;50.858;7.232;2023-02-07T01:05:35;51951.38;;;-142.34;29.66
12951;BME280;6540;50.858;7.232;2023-02-07T01:08:00;51947.34;;;-142.34;29.06
12951;BME280;6540;50.858;7.232;2023-02-07T01:10:26;51927.16;;;-142.34;28.82
12951;BME280;6540;50.858;7.232;2023-02-07T01:12:51;51983.66;;;-142.34;29.90
12951;BME280;6540;50.858;7.232;2023-02-07T01:15:17;51935.25;;;-142.34;29.91
12951;BME280;6540;50.858;7.232;2023-02-07T01:17:43;51979.63;;;-142.34;28.72
12951;BME280;6540;50.858;7.232;2023-02-07T01:20:09;51941.28;;;-142.34;29.00
12951;BME280;6540;50.858;7.232;2023-02-07T01:22:36;51985.66;;;-142.34;30.07
12951;BME280;6540;50.858;7.232;2023-02-07T01:25:03;51949.34;;;-142.34;29.54
12951;BME280;6540;50.858;7.232;2023-02-07T01:27:28;51983.66;;;-142.34;29.68
12951;BME280;6540;50.858;7.232;2023-02-07T01:29:53;51937.25;;;-142.34;29.93
12951;BME280;6540;50.858;7.232;2023-02-07T01:32:19;51951.38;;;-142.34;29.34
12951;BME280;6540;50.858;7.232;2023-02-07T01:34:45;51947.34;;;-142.34;29.60
12951;BME280;6540;50.858;7.232;2023-02-07T01:37:10;51943.31;;;-142.34;29.57
12951;BME280;6540;50.858;7.232;2023-02-07T01:39:35;51945.31;;;-142.34;29.14
12951;BME280;6540;50.858;7.232;2023-02-07T01:42:01;51919.09;;;-142.34;29.41
12951;BME280;6540;50.858;7.232;2023-02-07T01:46:53;51961.47;;;-142.34;28.80
12951;BME280;6540;50.858;7.232;2023-02-07T01:49:30;51973.56;;;-142.34;29.00
12951;BME280;6540;50.858;7.232;2023-02-07T01:52:03;51971.53;;;-142.34;29.41
12951;BME280;6540;50.858;7.232;2023-02-07T01:54:31;51933.22;;;-142.34;28.26
12951;BME280;6540;50.858;7.232;2023-02-07T01:57:05;51955.41;;;-142.34;28.30
12951;BME280;6540;50.858;7.232;2023-02-07T01:59:33;51935.25;;;-142.34;28.02
12951;BME280;6540;50.858;7.232;2023-02-07T02:02:01;51959.44;;;-142.34;29.26
12951;BME280;6540;50.858;7.232;2023-02-07T02:04:27;51955.41;;;-142.34;29.30
12951;BME280;6540;50.858;7.232;2023-02-07T02:06:53;51939.28;;;-142.34;28.30
12951;BME280;6540;50.858;7.232;2023-02-07T02:09:18;51983.66;;;-142.34;29.32
12951;BME280;6540;50.858;7.232;2023-02-07T02:17:14;51977.59;;;-142.34;29.75
12951;BME280;6540;50.858;7.232;2023-02-07T02:41:43;51963.47;;;-142.34;29.28
12951;BME280;6540;50.858;7.232;2023-02-07T02:44:19;51933.22;;;-142.34;30.15
12951;BME280;6540;50.858;7.232;2023-02-07T02:46:47;51935.25;;;-142.34;30.14
12951;BME280;6540;50.858;7.232;2023-02-07T02:49:14;51947.34;;;-142.34;28.80
12951;BME280;6540;50.858;7.232;2023-02-07T02:51:40;51967.50;;;-142.34;28.44
12951;BME280;6540;50.858;7.232;2023-02-07T02:54:29;51941.28;;;-142.34;28.46
12951;BME280;6540;50.858;7.232;2023-02-07T03:13:49;51961.47;;;-142.34;28.25
12951;BME280;6540;50.858;7.232;2023-02-07T03:16:29;51987.69;;;-142.34;28.19
12951;BME280;6540;50.858;7.232;2023-02-07T03:23:57;51927.16;;;-142.34;29.85
12951;BME280;6540;50.858;7.232;2023-02-07T03:26:26;51959.44;;;-142.34;29.73
12951;BME280;6540;50.858;7.232;2023-02-07T03:28:54;51955.41;;;-142.34;29.09
12951;BME280;6540;50.858;7.232;2023-02-07T03:31:22;51983.66;;;-142.34;28.49
12951;BME280;6540;50.858;7.232;2023-02-07T03:33:52;51963.47;;;-142.34;28.05
12951;BME280;6540;50.858;7.232;2023-02-07T03:36:27;51989.69;;;-142.34;28.45
12951;BME280;6540;50.858;7.232;2023-02-07T03:38:54;51991.72;;;-142.34;28.40
12951;BME280;6540;50.858;7.232;2023-02-07T03:41:34;51963.47;;;-142.34;29.05
12951;BME280;6540;50.858;7.232;2023-02-07T03:44:03;51947.34;;;-142.34;29.46
12951;BME280;6540;50.858;7.232;2023-02-07T03:46:36;51919.09;;;-142.34;29.63
12951;BME280;6540;50.858;7.232;2023-02-07T03:49:02;51953.41;;;-142.34;29.67
12951;BME280;6540;50.858;7.232;2023-02-07T03:51:28;51935.25;;;-142.34;29.92
12951;BME280;6540;50.858;7.232;2023-02-07T03:53:53;51941.28;;;-142.34;29.14
12951;BME280;6540;50.858;7.232;2023-02-07T03:56:18;51959.44;;;-142.34;29.71
12951;BME280;6540;50.858;7.232;2023-02-07T03:58:44;51919.09;;;-142.34;29.15
12951;BME280;6540;50.858;7.232;2023-02-07T04:01:09;51955.41;;;-142.34;30.21
12951;BME280;6540;50.858;7.232;2023-02-07T04:03:35;51939.28;;;-142.34;30.41
12951;BME280;6540;50.858;7.232;2023-02-07T04:06:00;51915.06;;;-142.34;30.39
12951;BME280;6540;50.858;7.232;2023-02-07T04:08:25;51955.41;;;-142.34;30.07
12951;BME280;6540;50.858;7.232;2023-02-07T04:11:01;51965.50;;;-142.34;29.17
12951;BME280;6540;50.858;7.232;2023-02-07T04:13:28;51983.66;;;-142.34;30.21
12951;BME280;6540;50.858;7.232;2023-02-07T04:15:54;51937.25;;;-142.34;30.07
12951;BME280;6540;50.858;7.232;2023-02-07T04:18:19;51892.88;;;-142.34;30.75
12951;BME280;6540;50.858;7.232;2023-02-07T04:20:45;51925.16;;;-142.34;30.64
12951;BME280;6540;50.858;7.232;2023-02-07T04:23:10;51985.66;;;-142.34;30.33
12951;BME280;6540;50.858;7.232;2023-02-07T04:25:36;51951.38;;;-142.34;29.81
12951;BME280;6540;50.858;7.232;2023-02-07T04:28:01;51935.25;;;-142.34;29.97
12951;BME280;6540;50.858;7.232;2023-02-07T04:30:27;51937.25;;;-142.34;30.40
12951;BME280;6540;50.858;7.232;2023-02-07T04:32:52;51913.03;;;-142.34;30.42
12951;BME280;6540;50.858;7.232;2023-02-07T04:35:17;51935.25;;;-142.34;31.06
12951;BME280;6540;50.858;7.232;2023-02-07T04:37:43;51955.41;;;-142.34;30.19
12951;BME280;6540;50.858;7.232;2023-02-07T04:40:09;51947.34;;;-142.34;29.31
12951;BME280;6540;50.858;7.232;2023-02-07T04:42:34;51949.34;;;-142.34;29.80
12951;BME280;6540;50.858;7.232;2023-02-07T04:45:00;51971.53;;;-142.34;29.60
12951;BME280;6540;50.858;7.232;2023-02-07T04:47:25;51967.50;;;-142.34;30.55
12951;BME280;6540;50.858;7.232;2023-02-07T04:49:51;51959.44;;;-142.34;31.63
12951;BME280;6540;50.858;7.232;2023-02-07T04:52:16;51945.31;;;-142.34;31.88
12951;BME280;6540;50.858;7.232;2023-02-07T04:54:41;51933.22;;;-142.34;31.61
12951;BME280;6540;50.858;7.232;2023-02-07T04:57:07;51971.53;;;-142.34;29.60
12951;BME280;6540;50.858;7.232;2023-02-07T04:59:32;51943.31;;;-142.34;29.78
12951;BME280;6540;50.858;7.232;2023-02-07T05:01:57;51947.34;;;-142.34;31.08
12951;BME280;6540;50.858;7.232;2023-02-07T05:04:23;51949.34;;;-142.34;31.07
12951;BME280;6540;50.858;7.232;2023-02-07T05:06:48;51941.28;;;-142.34;31.73
12951;BME280;6540;50.858;7.232;2023-02-07T05:09:14;51939.28;;;-142.34;30.63
12951;BME280;6540;50.858;7.232;2023-02-07T05:11:39;51961.47;;;-142.34;31.58
12951;BME280;6540;50.858;7.232;2023-02-07T05:14:04;51919.09;;;-142.34;31.68
12951;BME280;6540;50.858;7.232;2023-02-07T05:16:30;51947.34;;;-142.34;31.91
12951;BME280;6540;50.858;7.232;2023-02-07T05:18:55;51959.44;;;-142.34;31.31
12951;BME280;6540;50.858;7.232;2023-02-07T05:21:20;51939.28;;;-142.34;31.41
12951;BME280;6540;50.858;7.232;2023-02-07T05:23:46;51957.44;;;-142.34;30.76
12951;BME280;6540;50.858;7.232;2023-02-07T05:26:11;51943.31;;;-142.34;31.31
12951;BME280;6540;50.858;7.232;2023-02-07T05:28:37;51947.34;;;-142.34;29.35
12951;BME280;6540;50.858;7.232;2023-02-07T05:31:02;51991.72;;;-142.34;29.90
12951;BME280;6540;50.858;7.232;2023-02-07T05:33:27;51979.63;;;-142.34;29.94
12951;BME280;6540;50.858;7.232;2023-02-07T05:35:53;51941.28;;;-142.34;30.14
12951;BME280;6540;50.858;7.232;2023-02-07T05:38:18;51929.19;;;-142.34;29.73
12951;BME280;6540;50.858;7.232;2023-02-07T05:40:44;51971.53;;;-142.34;30.55
12951;BME280;6540;50.858;7.232;2023-02-07T05:43:11;51987.69;;;-142.34;30.43
12951;BME280;6540;50.858;7.232;2023-02-07T05:45:36;51935.25;;;-142.34;29.51
12951;BME280;6540;50.858;7.232;2023-02-07T05:48:02;51955.41;;;-142.34;32.11
12951;BME280;6540;50.858;7.232;2023-02-07T05:50:28;51935.25;;;-142.34;31.21
12951;BME280;6540;50.858;7.232;2023-02-07T05:52:53;51925.16;;;-142.34;32.06
12951;BME280;6540;50.858;7.232;2023-02-07T05:55:18;51937.25;;;-142.34;30.56
12951;BME280;6540;50.858;7.232;2023-02-07T05:57:44;51959.44;;;-142.34;29.41
12951;BME280;6540;50.858;7.232;2023-02-07T06:00:15;51915.06;;;-142.34;28.95
12951;BME280;6540;50.858;7.232;2023-02-07T06:02:41;51947.34;;;-142.34;31.43
12951;BME280;6540;50.858;7.232;2023-02-07T06:05:13;51923.13;;;-142.34;31.64
12951;BME280;6540;50.858;7.232;2023-02-07T06:07:39;51923.13;;;-142.34;30.56
12951;BME280;6540;50.858;7.232;2023-02-07T06:10:05;51935.25;;;-142.34;29.11
12951;BME280;6540;50.858;7.232;2023-02-07T06:12:31;51949.34;;;-142.34;29.57
12951;BME280;6540;50.858;7.232;2023-02-07T06:14:57;51923.13;;;-142.34;31.20
12951;BME280;6540;50.858;7.232;2023-02-07T06:17:22;51947.34;;;-142.34;31.26
12951;BME280;6540;50.858;7.232;2023-02-07T06:19:48;51927.16;;;-142.34;30.84
12951;BME280;6540;50.858;7.232;2023-02-07T06:22:14;51923.13;;;-142.34;30.84
12951;BME280;6540;50.858;7.232;2023-02-07T06:24:39;51919.09;;;-142.34;31.24
12951;BME280;6540;50.858;7.232;2023-02-07T06:27:05;51917.06;;;-142.34;31.52
12951;BME280;6540;50.858;7.232;2023-02-07T06:29:30;51907.00;;;-142.34;31.22
12951;BME280;6540;50.858;7.232;2023-02-07T06:31:55;51902.97;;;-142.34;30.48
12951;BME280;6540;50.858;7.232;2023-02-07T06:34:21;51927.16;;;-142.34;29.90
12951;BME280;6540;50.858;7.232;2023-02-07T06:36:46;51995.75;;;-142.34;29.25
12951;BME280;6540;50.858;7.232;2023-02-07T06:39:12;51957.44;;;-142.34;29.31
12951;BME280;6540;50.858;7.232;2023-02-07T06:41:37;51959.44;;;-142.34;28.67
12951;BME280;6540;50.858;7.232;2023-02-07T06:44:02;51947.34;;;-142.34;28.36
12951;BME280;6540;50.858;7.232;2023-02-07T06:46:28;51951.38;;;-142.34;28.42
12951;BME280;6540;50.858;7.232;2023-02-07T06:48:53;51967.50;;;-142.34;28.54
12951;BME280;6540;50.858;7.232;2023-02-07T06:51:18;51963.47;;;-142.34;27.97
12951;BME280;6540;50.858;7.232;2023-02-07T06:53:44;52009.88;;;-142.34;27.61
12951;BME280;6540;50.858;7.232;2023-02-07T06:56:09;51949.34;;;-142.34;28.78
12951;BME280;6540;50.858;7.232;2023-02-07T06:58:35;51973.56;;;-142.34;29.14
12951;BME280;6540;50.858;7.232;2023-02-07T07:01:01;51983.66;;;-142.34;28.19
12951;BME280;6540;50.858;7.232;2023-02-07T07:03:26;51995.75;;;-142.34;27.85
12951;BME280;6540;50.858;7.232;2023-02-07T07:05:54;51973.56;;;-142.34;28.12
12951;BME280;6540;50.858;7.232;2023-02-07T07:08:19;51937.25;;;-142.34;27.84
12951;BME280;6540;50.858;7.232;2023-02-07T07:10:45;51965.50;;;-142.34;27.78
12951;BME280;6540;50.858;7.232;2023-02-07T07:13:10;51971.53;;;-142.34;28.66
12951;BME280;6540;50.858;7.232;2023-02-07T07:15:36;51999.78;;;-142.34;28.29
12951;BME280;6540;50.858;7.232;2023-02-07T07:18:01;51963.47;;;-142.34;28.36
12951;BME280;6540;50.858;7.232;2023-02-07T07:20:27;51961.47;;;-142.34;28.05
12951;BME280;6540;50.858;7.232;2023-02-07T07:22:52;51949.34;;;-142.34;28.68
12951;BME280;6540;50.858;7.232;2023-02-07T07:25:18;51961.47;;;-142.34;29.04
12951;BME280;6540;50.858;7.232;2023-02-07T07:27:44;51939.28;;;-142.34;29.12
12951;BME280;6540;50.858;7.232;2023-02-07T07:30:10;52011.91;;;-142.34;28.83
12951;BME280;6540;50.858;7.232;2023-02-07T07:32:35;51939.28;;;-142.34;29.38
12951;BME280;6540;50.858;7.232;2023-02-07T07:35:01;51943.31;;;-142.34;28.37
12951;BME280;6540;50.858;7.232;2023-02-07T07:37:27;51983.66;;;-142.34;28.28
12951;BME280;6540;50.858;7.232;2023-02-07T07:39:52;51927.16;;;-142.34;28.67
12951;BME280;6540;50.858;7.232;2023-02-07T07:42:18;51975.59;;;-142.34;28.44
12951;BME280;6540;50.858;7.232;2023-02-07T07:44:43;51963.47;;;-142.34;29.48
12951;BME280;6540;50.858;7.232;2023-02-07T07:47:08;51991.72;;;-142.34;29.29
12951;BME280;6540;50.858;7.232;2023-02-07T07:49:34;51995.75;;;-142.34;28.17
12951;BME280;6540;50.858;7.232;2023-02-07T07:51:59;51995.75;;;-142.34;27.92
12951;BME280;6540;50.858;7.232;2023-02-07T07:54:24;52003.81;;;-142.34;28.29
12951;BME280;6540;50.858;7.232;2023-02-07T07:56:50;51967.50;;;-142.34;29.16
12951;BME280;6540;50.858;7.232;2023-02-07T07:59:15;51991.72;;;-142.34;29.46
12951;BME280;6540;50.858;7.232;2023-02-07T08:01:41;51985.66;;;-142.34;29.58
12951;BME280;6540;50.858;7.232;2023-02-07T08:04:06;51927.16;;;-142.34;29.07
12951;BME280;6540;50.858;7.232;2023-02-07T08:06:32;51975.59;;;-142.34;28.48
12951;BME280;6540;50.858;7.232;2023-02-07T08:08:57;52024.00;;;-142.34;28.39
12951;BME280;6540;50.858;7.232;2023-02-07T08:11:23;51981.63;;;-142.34;28.29
12951;BME280;6540;50.858;7.232;2023-02-07T08:13:49;51971.53;;;-142.34;28.16
12951;BME280;6540;50.858;7.232;2023-02-07T08:16:15;51993.75;;;-142.34;27.99
12951;BME280;6540;50.858;7.232;2023-02-07T08:18:41;51951.38;;;-142.34;28.61
12951;BME280;6540;50.858;7.232;2023-02-07T08:21:09;51983.66;;;-142.34;28.46
12951;BME280;6540;50.858;7.232;2023-02-07T08:23:35;51977.59;;;-142.34;29.04
12951;BME280;6540;50.858;7.232;2023-02-07T08:26:00;51987.69;;;-142.34;28.51
12951;BME280;6540;50.858;7.232;2023-02-07T08:28:27;51959.44;;;-142.34;28.29
12951;BME280;6540;50.858;7.232;2023-02-07T08:30:53;52003.81;;;-142.34;28.26
12951;BME280;6540;50.858;7.232;2023-02-07T08:33:18;51975.59;;;-142.34;28.45
12951;BME280;6540;50.858;7.232;2023-02-07T08:35:44;51987.69;;;-142.34;28.99
12951;BME280;6540;50.858;7.232;2023-02-07T08:38:10;52036.09;;;-142.34;28.27
12951;BME280;6540;50.858;7.232;2023-02-07T08:40:36;51953.41;;;-142.34;29.07
12951;BME280;6540;50.858;7.232;2023-02-07T08:43:02;51999.78;;;-142.34;28.95
12951;BME280;6540;50.858;7.232;2023-02-07T08:45:31;51975.59;;;-142.34;28.52
12951;BME280;6540;50.858;7.232;2023-02-07T08:47:56;51991.72;;;-142.34;28.69
12951;BME280;6540;50.858;7.232;2023-02-07T08:50:22;51967.50;;;-142.34;28.83
12951;BME280;6540;50.858;7.232;2023-02-07T08:52:47;51975.59;;;-142.34;29.12
12951;BME280;6540;50.858;7.232;2023-02-07T08:55:12;51963.47;;;-142.34;28.93
12951;BME280;6540;50.858;7.232;2023-02-07T08:57:38;52005.84;;;-142.34;29.31
12951;BME280;6540;50.858;7.232;2023-02-07T09:00:05;51959.44;;;-142.34;28.95
12951;BME280;6540;50.858;7.232;2023-02-07T09:02:31;51977.59;;;-142.34;29.87
12951;BME280;6540;50.858;7.232;2023-02-07T09:04:57;52032.06;;;-142.34;28.88
12951;BME280;6540;50.858;7.232;2023-02-07T09:07:22;51955.41;;;-142.34;28.57
12951;BME280;6540;50.858;7.232;2023-02-07T09:09:48;51979.63;;;-142.34;28.22
12951;BME280;6540;50.858;7.232;2023-02-07T09:12:13;52028.03;;;-142.34;28.73
12951;BME280;6540;50.858;7.232;2023-02-07T09:14:39;52005.84;;;-142.34;28.41
12951;BME280;6540;50.858;7.232;2023-02-07T09:17:06;52032.06;;;-142.34;28.90
12951;BME280;6540;50.858;7.232;2023-02-07T09:19:31;52003.81;;;-142.34;28.68
12951;BME280;6540;50.858;7.232;2023-02-07T09:21:57;51975.59;;;-142.34;28.70
12951;BME280;6540;50.858;7.232;2023-02-07T09:24:22;52024.00;;;-142.34;28.64
12951;BME280;6540;50.858;7.232;2023-02-07T09:26:48;52009.88;;;-142.34;28.72
12951;BME280;6540;50.858;7.232;2023-02-07T09:29:14;51963.47;;;-142.34;28.61
12951;BME280;6540;50.858;7.232;2023-02-07T09:31:39;51999.78;;;-142.34;29.54
12951;BME280;6540;50.858;7.232;2023-02-07T09:34:05;51973.56;;;-142.34;29.16
12951;BME280;6540;50.858;7.232;2023-02-07T09:36:31;51975.59;;;-142.34;28.74
12951;BME280;6540;50.858;7.232;2023-02-07T09:38:58;51955.41;;;-142.34;29.58
12951;BME280;6540;50.858;7.232;2023-02-07T09:44:08;51945.31;;;-142.34;29.46
12951;BME280;6540;50.858;7.232;2023-02-07T09:46:41;51943.31;;;-142.34;28.36
12951;BME280;6540;50.858;7.232;2023-02-07T09:50:03;52003.81;;;-142.34;29.90
12951;BME280;6540;50.858;7.232;2023-02-07T09:52:04;51983.66;;;-142.34;28.04
12951;BME280;6540;50.858;7.232;2023-02-07T09:54:39;51989.69;;;-142.34;27.44
12951;BME280;6540;50.858;7.232;2023-02-07T09:57:11;52007.84;;;-142.34;28.57
12951;BME280;6540;50.858;7.232;2023-02-07T09:59:52;51979.63;;;-142.34;29.36
12951;BME280;6540;50.858;7.232;2023-02-07T10:02:41;51971.53;;;-142.34;28.24
12951;BME280;6540;50.858;7.232;2023-02-07T10:05:15;52003.81;;;-142.34;28.61
12951;BME280;6540;50.858;7.232;2023-02-07T10:07:45;51957.44;;;-142.34;27.91
12951;BME280;6540;50.858;7.232;2023-02-07T10:10:14;51995.75;;;-142.34;27.55
12951;BME280;6540;50.858;7.232;2023-02-07T10:15:49;51943.31;;;-142.34;27.88
12951;BME280;6540;50.858;7.232;2023-02-07T10:18:39;52015.94;;;-142.34;28.03
12951;BME280;6540;50.858;7.232;2023-02-07T10:27:30;51973.56;;;-142.34;26.92
12951;BME280;6540;50.858;7.232;2023-02-07T10:30:09;51995.75;;;-142.34;27.23
12951;BME280;6540;50.858;7.232;2023-02-07T10:32:37;51989.69;;;-142.34;26.95
12951;BME280;6540;50.858;7.232;2023-02-07T10:35:22;52015.94;;;-142.34;26.30
12951;BME280;6540;50.858;7.232;2023-02-07T10:37:52;51971.53;;;-142.34;26.49
12951;BME280;6540;50.858;7.232;2023-02-07T10:42:53;51977.59;;;-142.34;26.03
12951;BME280;6540;50.858;7.232;2023-02-07T10:45:21;51987.69;;;-142.34;26.02
12951;BME280;6540;50.858;7.232;2023-02-07T10:47:47;51983.66;;;-142.34;26.75
12951;BME280;6540;50.858;7.232;2023-02-07T10:50:19;51959.44;;;-142.34;26.34
12951;BME280;6540;50.858;7.232;2023-02-07T10:52:51;51967.50;;;-142.34;26.83
12951;BME280;6540;50.858;7.232;2023-02-07T10:55:19;51945.31;;;-142.34;26.35
12951;BME280;6540;50.858;7.232;2023-02-07T10:57:53;51959.44;;;-142.34;26.00
12951;BME280;6540;50.858;7.232;2023-02-07T11:00:28;51967.50;;;-142.34;25.46
12951;BME280;6540;50.858;7.232;2023-02-07T11:05:30;51967.50;;;-142.34;25.89
12951;BME280;6540;50.858;7.232;2023-02-07T11:08:24;51987.69;;;-142.34;25.37
12951;BME280;6540;50.858;7.232;2023-02-07T11:10:52;51971.53;;;-142.34;25.58
12951;BME280;6540;50.858;7.232;2023-02-07T11:13:24;51949.34;;;-142.34;25.95
12951;BME280;6540;50.858;7.232;2023-02-07T11:18:46;51971.53;;;-142.34;25.75
12951;BME280;6540;50.858;7.232;2023-02-07T11:23:46;51947.34;;;-142.34;26.32
12951;BME280;6540;50.858;7.232;2023-02-07T11:26:13;51925.16;;;-142.34;25.74
12951;BME280;6540;50.858;7.232;2023-02-07T11:28:40;51967.50;;;-142.34;25.46
12951;BME280;6540;50.858;7.232;2023-02-07T11:31:09;52005.84;;;-142.34;25.58
12951;BME280;6540;50.858;7.232;2023-02-07T11:33:38;51965.50;;;-142.34;25.89
12951;BME280;6540;50.858;7.232;2023-02-07T11:38:53;51981.63;;;-142.34;25.90
12951;BME280;6540;50.858;7.232;2023-02-07T11:41:22;51943.31;;;-142.34;25.42
12951;BME280;6540;50.858;7.232;2023-02-07T11:44:16;51983.66;;;-142.34;24.79
12951;BME280;6540;50.858;7.232;2023-02-07T11:46:45;51973.56;;;-142.34;25.17
12951;BME280;6540;50.858;7.232;2023-02-07T11:52:02;51951.38;;;-142.34;25.90
12951;BME280;6540;50.858;7.232;2023-02-07T11:54:29;51977.59;;;-142.34;26.53
12951;BME280;6540;50.858;7.232;2023-02-07T11:57:04;51971.53;;;-142.34;25.27
12951;BME280;6540;50.858;7.232;2023-02-07T11:59:30;51963.47;;;-142.34;25.41
12951;BME280;6540;50.858;7.232;2023-02-07T12:02:00;51957.44;;;-142.34;25.95
12951;BME280;6540;50.858;7.232;2023-02-07T12:04:37;51979.63;;;-142.34;24.05
12951;BME280;6540;50.858;7.232;2023-02-07T12:09:53;51963.47;;;-142.34;23.85
12951;BME280;6540;50.858;7.232;2023-02-07T12:12:34;51963.47;;;-142.34;25.73
12951;BME280;6540;50.858;7.232;2023-02-07T12:18:25;51945.31;;;-142.34;24.53
12951;BME280;6540;50.858;7.232;2023-02-07T12:23:27;51971.53;;;-142.34;24.61
12951;BME280;6540;50.858;7.232;2023-02-07T12:26:07;51945.31;;;-142.34;23.64
12951;BME280;6540;50.858;7.232;2023-02-07T12:29:08;51983.66;;;-142.34;24.28
12951;BME280;6540;50.858;7.232;2023-02-07T12:34:09;51955.41;;;-142.34;23.38
12951;BME280;6540;50.858;7.232;2023-02-07T12:36:43;51959.44;;;-142.34;24.04
12951;BME280;6540;50.858;7.232;2023-02-07T12:39:35;51919.09;;;-142.34;24.27
12951;BME280;6540;50.858;7.232;2023-02-07T12:44:56;51870.69;;;-142.34;25.04
12951;BME280;6540;50.858;7.232;2023-02-07T12:56:14;51949.34;;;-142.34;23.78
12951;BME280;6540;50.858;7.232;2023-02-07T12:58:43;51955.41;;;-142.34;23.09
12951;BME280;6540;50.858;7.232;2023-02-07T13:12:42;51939.28;;;-142.34;23.72
12951;BME280;6540;50.858;7.232;2023-02-07T13:15:45;51923.13;;;-142.34;23.36
12951;BME280;6540;50.858;7.232;2023-02-07T13:23:19;51925.16;;;-142.34;23.39
12951;BME280;6540;50.858;7.232;2023-02-07T13:25:48;51931.19;;;-142.34;23.77
12951;BME280;6540;50.858;7.232;2023-02-07T13:28:23;51943.31;;;-142.34;22.18
12951;BME280;6540;50.858;7.232;2023-02-07T13:30:55;51923.13;;;-142.34;23.68
12951;BME280;6540;50.858;7.232;2023-02-07T13:33:41;51927.16;;;-142.34;22.65
12951;BME280;6540;50.858;7.232;2023-02-07T13:36:14;51953.41;;;-142.34;22.62
12951;BME280;6540;50.858;7.232;2023-02-07T13:41:26;51939.28;;;-142.34;22.21
12951;BME280;6540;50.858;7.232;2023-02-07T13:47:11;51915.06;;;-142.34;23.95
12951;BME280;6540;50.858;7.232;2023-02-07T13:50:03;51909.00;;;-142.34;23.70
12951;BME280;6540;50.858;7.232;2023-02-07T13:55:23;51931.19;;;-142.34;23.48
12951;BME280;6540;50.858;7.232;2023-02-07T13:57:50;51931.19;;;-142.34;23.75
12951;BME280;6540;50.858;7.232;2023-02-07T14:03:27;51919.09;;;-142.34;23.41
12951;BME280;6540;50.858;7.232;2023-02-07T14:08:38;51907.00;;;-142.34;22.86
12951;BME280;6540;50.858;7.232;2023-02-07T14:11:40;51933.22;;;-142.34;23.41
12951;BME280;6540;50.858;7.232;2023-02-07T14:17:02;51935.25;;;-142.34;22.85
12951;BME280;6540;50.858;7.232;2023-02-07T14:22:27;51951.38;;;-142.34;22.17
12951;BME280;6540;50.858;7.232;2023-02-07T14:32:42;51907.00;;;-142.34;22.99
12951;BME280;6540;50.858;7.232;2023-02-07T14:40:18;51947.34;;;-142.34;22.93
12951;BME280;6540;50.858;7.232;2023-02-07T14:43:00;51941.28;;;-142.34;22.41
12951;BME280;6540;50.858;7.232;2023-02-07T14:45:32;51919.09;;;-142.34;22.86
12951;BME280;6540;50.858;7.232;2023-02-07T14:47:58;51929.19;;;-142.34;23.29
12951;BME280;6540;50.858;7.232;2023-02-07T14:50:26;51925.16;;;-142.34;22.57
12951;BME280;6540;50.858;7.232;2023-02-07T14:53:00;51959.44;;;-142.34;22.77
12951;BME280;6540;50.858;7.232;2023-02-07T14:55:47;51921.13;;;-142.34;22.31
12951;BME280;6540;50.858;7.232;2023-02-07T14:58:37;51945.31;;;-142.34;21.82
12951;BME280;6540;50.858;7.232;2023-02-07T15:01:10;51949.34;;;-142.34;22.30
12951;BME280;6540;50.858;7.232;2023-02-07T15:03:36;51987.69;;;-142.34;22.15
12951;BME280;6540;50.858;7.232;2023-02-07T15:06:03;51959.44;;;-142.34;22.76
12951;BME280;6540;50.858;7.232;2023-02-07T15:08:31;51923.13;;;-142.34;22.53
12951;BME280;6540;50.858;7.232;2023-02-07T15:11:04;51919.09;;;-142.34;22.04
12951;BME280;6540;50.858;7.232;2023-02-07T15:13:34;51931.19;;;-142.34;22.55
12951;BME280;6540;50.858;7.232;2023-02-07T15:18:38;51915.06;;;-142.34;21.87
12951;BME280;6540;50.858;7.232;2023-02-07T15:21:04;51931.19;;;-142.34;22.45
12951;BME280;6540;50.858;7.232;2023-02-07T15:23:30;51931.19;;;-142.34;21.83
12951;BME280;6540;50.858;7.232;2023-02-07T15:26:00;51951.38;;;-142.34;21.99
12951;BME280;6540;50.858;7.232;2023-02-07T15:28:30;51953.41;;;-142.34;21.92
12951;BME280;6540;50.858;7.232;2023-02-07T15:30:57;51959.44;;;-142.34;21.79
12951;BME280;6540;50.858;7.232;2023-02-07T15:33:24;51919.09;;;-142.34;21.85